罗盘
风向 的 风向 020° Aérodrome du Havre - Saint-Romain 1/19
风: 11 kt, 4 beaufort

11 kt

2 kt
改变
0 2.000 4.000 6.000 8.000 10.000
FEW 3.500 ft
BKN 4.700 ft
BKN 6.000 ft
N/A
METAR LFOH 251000Z AUTO 02011KT 9999 4100 RA FEW035/// BKN047/// BKN060/// //////TCU 14/11 Q1019 TEMPO 4000 SHRA

METAR Aérodrome du Havre - Saint-Romain - LFOY

Aérodrome du Havre - Saint-Romain是St Romain de Colbosc,法国中的小机场。 该机场有2条跑道: 1/19 和 5/23. 该领域的国际民航组织标志是LFOY.

这份报告是针对2022年9月25日 12:00, 当地时间在Le Havre Octeville Airport进行的。

机场观察

风向为020°,速度为11 kt。

可见度为4,1 km 或者更多。

有几云在3.500 ft的高度, 碎云在4.700 ft的高度, 碎云在6.000 ft的高度 和 。 破损或更高的上限为4.700 ft。

当前天气为雨。 温度和风寒是14 °C。 露点为11 °C,相对湿度为82%。 海平面上的气压为1019 hPa (QNH)。

发展趋势

  • 暂时的

    可变方向的风很小或没有。 可见性变为4 km。 重大天气:阵雨 雨。

白天

今天,太阳从07:49升起,在19:50降落。 这适用于Aérodrome du Havre - Saint-Romain,世界夏令时可能有所不同。 当地时间与世界标准时间之间的时差为+2 小时。 夏令时目前正在进行中。

公司介绍

在这个机场,你可以找到飞行俱乐部。 这个机场上的公司有ACES, Aéroclub de l'Estuaire de la Seine 和 Aéroclub de Gravenchon。

体会

到Vliegles.nl去找飞行课程,跳伞和其他飞行体验。 浏览页面,了解Aérodrome du Havre - Saint-Romain附近所有可用的活动。 你也可以使用搜索功能来寻找你所在地附近的特定飞行课程、跳伞或其他飞行体验。

跑道

Id 标题 侧风 逆风 侧风 %
1/19 010°-190° 2 kt 11 kt 17 %
5/23 054°-234° 6 kt 9 kt 56 %

逆风成分最大的方向会被突出显示,并用于横风计算。 这并不一定意味着这个方向在使用。

乌云

3.500 ft FEW 几云
4.700 ft BKN 碎云
6.000 ft BKN 碎云
0 ft

温度 & 天气

天气
温度 14 °C
露点 11 °C
相对湿度 82%
Kp-index 1  

白天

日出
07:50
中午
13:51
日落
19:52 (7h 25m)

小工具

你想在你的网站上有一个关于Aérodrome du Havre - Saint-Romain的当前航空天气(METAR)的小部件吗?

</> 显示HTML代码

我们和第三方通过cookies跟踪您在我们网站上的上网行为。如果您继续,我们认为您同意我们的cookie政策。 了解更多